createdAt,value
2023-01-31T00:05:30.092Z,1010
2023-01-31T00:21:12.772Z,1010
2023-01-31T00:36:54.902Z,1010
2023-01-31T00:52:37.276Z,1011
2023-01-31T01:08:19.568Z,1011
2023-01-31T01:24:01.919Z,1011
2023-01-31T01:39:44.306Z,1011
2023-01-31T01:55:26.657Z,1011
2023-01-31T02:11:09.696Z,1012
2023-01-31T02:26:52.229Z,1012
2023-01-31T02:42:34.660Z,1012
2023-01-31T02:58:17.163Z,1012
2023-01-31T03:13:59.387Z,1012
2023-01-31T03:29:42.177Z,1013
2023-01-31T03:45:24.871Z,1013
2023-01-31T04:01:07.528Z,1013
2023-01-31T04:16:49.972Z,1013
2023-01-31T04:32:32.425Z,1013
2023-01-31T04:48:15.707Z,1013
2023-01-31T05:03:57.886Z,1013
2023-01-31T05:19:40.901Z,1013
2023-01-31T05:35:23.524Z,1013
2023-01-31T05:51:05.928Z,1013
2023-01-31T06:06:48.755Z,1014
2023-01-31T06:22:31.659Z,1014
2023-01-31T06:38:14.448Z,1014
2023-01-31T06:53:57.058Z,1014
2023-01-31T07:09:39.428Z,1014
2023-01-31T07:25:22.186Z,1014
2023-01-31T07:41:04.459Z,1014
2023-01-31T07:56:47.112Z,1014
2023-01-31T08:12:30.208Z,1014
2023-01-31T08:28:12.407Z,1014
2023-01-31T08:43:55.282Z,1014
2023-01-31T08:59:38.253Z,1013
2023-01-31T09:15:20.745Z,1013
2023-01-31T09:31:03.457Z,1013
2023-01-31T09:46:46.209Z,1013
2023-01-31T10:02:28.404Z,1013
2023-01-31T10:18:10.847Z,1013
2023-01-31T10:33:53.675Z,1012
2023-01-31T10:49:35.949Z,1012
2023-01-31T11:05:18.903Z,1012
2023-01-31T11:21:01.533Z,1011
2023-01-31T11:36:43.721Z,1011
2023-01-31T11:52:26.294Z,1011
2023-01-31T12:08:08.722Z,1010
2023-01-31T12:23:51.621Z,1010
2023-01-31T12:39:33.892Z,1010
2023-01-31T12:55:16.912Z,1009
2023-01-31T13:10:59.719Z,1009
2023-01-31T13:27:29.947Z,1009
2023-01-31T13:28:17.457Z,1009
2023-01-31T13:44:00.027Z,1009
2023-01-31T13:59:43.162Z,1009
2023-01-31T14:15:25.557Z,1009
2023-01-31T14:31:08.332Z,1008
2023-01-31T14:46:50.508Z,1008
2023-01-31T15:02:33.395Z,1008
2023-01-31T15:18:16.350Z,1008
2023-01-31T15:33:58.686Z,1008
2023-01-31T15:49:41.416Z,1008
2023-01-31T16:05:24.043Z,1008
2023-01-31T16:21:06.593Z,1008
2023-01-31T16:36:48.778Z,1008
2023-01-31T16:52:31.823Z,1008
2023-01-31T17:08:14.255Z,1007
2023-01-31T17:23:56.752Z,1008
2023-01-31T17:39:38.840Z,1007
2023-01-31T17:55:22.079Z,1007
2023-01-31T18:11:05.089Z,1006
2023-01-31T18:26:47.803Z,1007
2023-01-31T18:42:30.610Z,1006
2023-01-31T18:58:13.113Z,1006
2023-01-31T19:13:55.848Z,1006
2023-01-31T19:29:38.471Z,1006
2023-01-31T19:45:21.146Z,1007
2023-01-31T20:01:04.208Z,1007
2023-01-31T20:16:46.452Z,1007
2023-01-31T20:32:28.832Z,1007
2023-01-31T20:48:10.962Z,1007
2023-01-31T21:03:53.878Z,1007
2023-01-31T21:19:36.305Z,1008
2023-01-31T21:35:18.834Z,1008
2023-01-31T21:51:01.611Z,1008
2023-01-31T22:06:44.193Z,1008
2023-01-31T22:22:26.380Z,1008
2023-01-31T22:38:08.588Z,1008
2023-01-31T22:53:51.015Z,1008
2023-01-31T23:09:33.199Z,1008
2023-01-31T23:25:15.822Z,1008
2023-01-31T23:40:58.072Z,1008
2023-01-31T23:56:40.640Z,1008
